sensor_id;sensor_type;location;lat;lon;timestamp;temperature;humidity
13409;DHT22;6775;49.574;11.170;2024-02-26T00:00:00;3.60;99.90
13409;DHT22;6775;49.574;11.170;2024-02-26T00:02:28;3.50;99.90
13409;DHT22;6775;49.574;11.170;2024-02-26T00:04:58;3.60;99.90
13409;DHT22;6775;49.574;11.170;2024-02-26T00:07:26;3.50;99.90
13409;DHT22;6775;49.574;11.170;2024-02-26T00:09:54;3.40;99.90
13409;DHT22;6775;49.574;11.170;2024-02-26T00:12:22;3.40;99.90
13409;DHT22;6775;49.574;11.170;2024-02-26T00:14:50;3.30;99.90
13409;DHT22;6775;49.574;11.170;2024-02-26T00:17:20;3.30;99.90
13409;DHT22;6775;49.574;11.170;2024-02-26T00:19:49;3.30;99.90
13409;DHT22;6775;49.574;11.170;2024-02-26T00:22:16;3.30;99.90
13409;DHT22;6775;49.574;11.170;2024-02-26T00:24:44;3.30;99.90
13409;DHT22;6775;49.574;11.170;2024-02-26T00:27:12;3.30;99.90
13409;DHT22;6775;49.574;11.170;2024-02-26T00:29:40;3.40;99.90
13409;DHT22;6775;49.574;11.170;2024-02-26T00:32:07;3.40;99.90
13409;DHT22;6775;49.574;11.170;2024-02-26T00:34:37;3.50;99.90
13409;DHT22;6775;49.574;11.170;2024-02-26T00:37:05;3.50;99.90
13409;DHT22;6775;49.574;11.170;2024-02-26T00:39:33;3.40;99.90
13409;DHT22;6775;49.574;11.170;2024-02-26T00:42:02;3.50;99.90
13409;DHT22;6775;49.574;11.170;2024-02-26T00:44:30;3.50;99.90
13409;DHT22;6775;49.574;11.170;2024-02-26T00:46:58;3.50;99.90
13409;DHT22;6775;49.574;11.170;2024-02-26T00:49:26;3.50;99.90
13409;DHT22;6775;49.574;11.170;2024-02-26T00:51:56;3.60;99.90
13409;DHT22;6775;49.574;11.170;2024-02-26T00:54:26;3.60;99.90
13409;DHT22;6775;49.574;11.170;2024-02-26T00:56:54;3.60;99.90
13409;DHT22;6775;49.574;11.170;2024-02-26T00:59:23;3.60;99.90
13409;DHT22;6775;49.574;11.170;2024-02-26T01:01:51;3.50;99.90
13409;DHT22;6775;49.574;11.170;2024-02-26T01:04:19;3.50;99.90
13409;DHT22;6775;49.574;11.170;2024-02-26T01:06:47;3.50;99.90
13409;DHT22;6775;49.574;11.170;2024-02-26T01:09:17;3.50;99.90
13409;DHT22;6775;49.574;11.170;2024-02-26T01:11:45;3.40;99.90
13409;DHT22;6775;49.574;11.170;2024-02-26T01:14:13;3.50;99.90
13409;DHT22;6775;49.574;11.170;2024-02-26T01:16:42;3.50;99.90
13409;DHT22;6775;49.574;11.170;2024-02-26T01:19:10;3.50;99.90
13409;DHT22;6775;49.574;11.170;2024-02-26T01:21:38;3.50;99.90
13409;DHT22;6775;49.574;11.170;2024-02-26T01:24:07;3.50;99.90
13409;DHT22;6775;49.574;11.170;2024-02-26T01:26:36;3.50;99.90
13409;DHT22;6775;49.574;11.170;2024-02-26T01:29:05;3.50;99.90
13409;DHT22;6775;49.574;11.170;2024-02-26T01:31:33;3.50;99.90
13409;DHT22;6775;49.574;11.170;2024-02-26T01:34:01;3.50;99.90
13409;DHT22;6775;49.574;11.170;2024-02-26T01:36:29;3.50;99.90
13409;DHT22;6775;49.574;11.170;2024-02-26T01:38:57;3.50;99.90
13409;DHT22;6775;49.574;11.170;2024-02-26T01:41:26;3.60;99.90
13409;DHT22;6775;49.574;11.170;2024-02-26T01:43:55;3.50;99.90
13409;DHT22;6775;49.574;11.170;2024-02-26T01:46:23;3.50;99.90
13409;DHT22;6775;49.574;11.170;2024-02-26T01:48:52;3.50;99.90
13409;DHT22;6775;49.574;11.170;2024-02-26T01:51:20;3.50;99.90
13409;DHT22;6775;49.574;11.170;2024-02-26T01:53:50;3.40;99.90
13409;DHT22;6775;49.574;11.170;2024-02-26T01:56:20;3.40;99.90
13409;DHT22;6775;49.574;11.170;2024-02-26T01:58:56;3.50;99.90
13409;DHT22;6775;49.574;11.170;2024-02-26T02:01:27;3.60;99.90
13409;DHT22;6775;49.574;11.170;2024-02-26T02:03:58;3.60;99.90
13409;DHT22;6775;49.574;11.170;2024-02-26T02:06:27;3.70;99.90
13409;DHT22;6775;49.574;11.170;2024-02-26T02:08:56;3.80;99.90
13409;DHT22;6775;49.574;11.170;2024-02-26T02:11:24;3.90;99.90
13409;DHT22;6775;49.574;11.170;2024-02-26T02:13:52;4.00;99.90
13409;DHT22;6775;49.574;11.170;2024-02-26T02:16:22;4.00;99.90
13409;DHT22;6775;49.574;11.170;2024-02-26T02:18:50;4.10;99.90
13409;DHT22;6775;49.574;11.170;2024-02-26T02:21:20;4.20;99.90
13409;DHT22;6775;49.574;11.170;2024-02-26T02:23:48;4.20;99.90
13409;DHT22;6775;49.574;11.170;2024-02-26T02:26:17;4.30;99.90
13409;DHT22;6775;49.574;11.170;2024-02-26T02:28:47;4.30;99.90
13409;DHT22;6775;49.574;11.170;2024-02-26T02:31:16;4.40;99.90
13409;DHT22;6775;49.574;11.170;2024-02-26T02:33:45;4.40;99.90
13409;DHT22;6775;49.574;11.170;2024-02-26T02:36:13;4.40;99.90
13409;DHT22;6775;49.574;11.170;2024-02-26T02:38:50;4.40;99.90
13409;DHT22;6775;49.574;11.170;2024-02-26T02:41:19;4.50;99.90
13409;DHT22;6775;49.574;11.170;2024-02-26T02:43:47;4.50;99.90
13409;DHT22;6775;49.574;11.170;2024-02-26T02:46:15;4.50;99.90
13409;DHT22;6775;49.574;11.170;2024-02-26T02:48:43;4.50;99.90
13409;DHT22;6775;49.574;11.170;2024-02-26T02:51:12;4.50;99.90
13409;DHT22;6775;49.574;11.170;2024-02-26T02:53:40;4.60;99.90
13409;DHT22;6775;49.574;11.170;2024-02-26T02:56:10;4.60;99.90
13409;DHT22;6775;49.574;11.170;2024-02-26T02:58:38;4.60;99.90
13409;DHT22;6775;49.574;11.170;2024-02-26T03:01:06;4.60;99.90
13409;DHT22;6775;49.574;11.170;2024-02-26T03:03:34;4.60;99.90
13409;DHT22;6775;49.574;11.170;2024-02-26T03:06:03;4.60;99.90
13409;DHT22;6775;49.574;11.170;2024-02-26T03:08:32;4.60;99.90
13409;DHT22;6775;49.574;11.170;2024-02-26T03:11:03;4.60;99.90
13409;DHT22;6775;49.574;11.170;2024-02-26T03:13:33;4.60;99.90
13409;DHT22;6775;49.574;11.170;2024-02-26T03:16:04;4.50;99.90
13409;DHT22;6775;49.574;11.170;2024-02-26T03:18:33;4.50;99.90
13409;DHT22;6775;49.574;11.170;2024-02-26T03:21:02;4.50;99.90
13409;DHT22;6775;49.574;11.170;2024-02-26T03:23:30;4.50;99.90
13409;DHT22;6775;49.574;11.170;2024-02-26T03:26:03;4.50;99.90
13409;DHT22;6775;49.574;11.170;2024-02-26T03:28:33;4.50;99.90
13409;DHT22;6775;49.574;11.170;2024-02-26T03:31:01;4.50;99.90
13409;DHT22;6775;49.574;11.170;2024-02-26T03:33:29;4.50;99.90
13409;DHT22;6775;49.574;11.170;2024-02-26T03:35:58;4.50;99.90
13409;DHT22;6775;49.574;11.170;2024-02-26T03:38:26;4.50;99.90
13409;DHT22;6775;49.574;11.170;2024-02-26T03:40:54;4.50;99.90
13409;DHT22;6775;49.574;11.170;2024-02-26T03:43:22;4.50;99.90
13409;DHT22;6775;49.574;11.170;2024-02-26T03:45:52;4.50;99.90
13409;DHT22;6775;49.574;11.170;2024-02-26T03:48:20;4.50;99.90
13409;DHT22;6775;49.574;11.170;2024-02-26T03:50:49;4.50;99.90
13409;DHT22;6775;49.574;11.170;2024-02-26T03:53:17;4.50;99.90
13409;DHT22;6775;49.574;11.170;2024-02-26T03:55:45;4.50;99.90
13409;DHT22;6775;49.574;11.170;2024-02-26T03:58:13;4.50;99.90
13409;DHT22;6775;49.574;11.170;2024-02-26T04:00:42;4.50;99.90
13409;DHT22;6775;49.574;11.170;2024-02-26T04:03:12;4.50;99.90
13409;DHT22;6775;49.574;11.170;2024-02-26T04:05:40;4.50;99.90
13409;DHT22;6775;49.574;11.170;2024-02-26T04:08:08;4.40;99.90
13409;DHT22;6775;49.574;11.170;2024-02-26T04:10:37;4.40;99.90
13409;DHT22;6775;49.574;11.170;2024-02-26T04:13:07;4.40;99.90
13409;DHT22;6775;49.574;11.170;2024-02-26T04:15:36;4.40;99.90
13409;DHT22;6775;49.574;11.170;2024-02-26T04:18:04;4.40;99.90
13409;DHT22;6775;49.574;11.170;2024-02-26T04:20:34;4.40;99.90
13409;DHT22;6775;49.574;11.170;2024-02-26T04:23:03;4.40;99.90
13409;DHT22;6775;49.574;11.170;2024-02-26T04:25:31;4.40;99.90
13409;DHT22;6775;49.574;11.170;2024-02-26T04:27:59;4.40;99.90
13409;DHT22;6775;49.574;11.170;2024-02-26T04:30:28;4.30;99.90
13409;DHT22;6775;49.574;11.170;2024-02-26T04:32:56;4.30;99.90
13409;DHT22;6775;49.574;11.170;2024-02-26T04:35:24;4.30;99.90
13409;DHT22;6775;49.574;11.170;2024-02-26T04:37:54;4.30;99.90
13409;DHT22;6775;49.574;11.170;2024-02-26T04:40:22;4.20;99.90
13409;DHT22;6775;49.574;11.170;2024-02-26T04:42:50;4.10;99.90
13409;DHT22;6775;49.574;11.170;2024-02-26T04:45:18;4.00;99.90
13409;DHT22;6775;49.574;11.170;2024-02-26T04:47:47;3.90;99.90
13409;DHT22;6775;49.574;11.170;2024-02-26T04:50:15;3.90;99.90
13409;DHT22;6775;49.574;11.170;2024-02-26T04:52:43;3.90;99.90
13409;DHT22;6775;49.574;11.170;2024-02-26T04:55:13;4.00;99.90
13409;DHT22;6775;49.574;11.170;2024-02-26T04:57:41;4.00;99.90
13409;DHT22;6775;49.574;11.170;2024-02-26T05:00:10;4.00;99.90
13409;DHT22;6775;49.574;11.170;2024-02-26T05:02:39;4.10;99.90
13409;DHT22;6775;49.574;11.170;2024-02-26T05:05:08;4.10;99.90
13409;DHT22;6775;49.574;11.170;2024-02-26T05:07:40;4.00;99.90
13409;DHT22;6775;49.574;11.170;2024-02-26T05:10:09;4.10;99.90
13409;DHT22;6775;49.574;11.170;2024-02-26T05:12:39;4.00;99.90
13409;DHT22;6775;49.574;11.170;2024-02-26T05:15:09;4.10;99.90
13409;DHT22;6775;49.574;11.170;2024-02-26T05:17:38;4.10;99.90
13409;DHT22;6775;49.574;11.170;2024-02-26T05:20:07;4.20;99.90
13409;DHT22;6775;49.574;11.170;2024-02-26T05:22:36;4.20;99.90
13409;DHT22;6775;49.574;11.170;2024-02-26T05:25:04;4.20;99.90
13409;DHT22;6775;49.574;11.170;2024-02-26T05:27:33;4.30;99.90
13409;DHT22;6775;49.574;11.170;2024-02-26T05:30:03;4.30;99.90
13409;DHT22;6775;49.574;11.170;2024-02-26T05:32:31;4.40;99.90
13409;DHT22;6775;49.574;11.170;2024-02-26T05:35:00;4.40;99.90
13409;DHT22;6775;49.574;11.170;2024-02-26T05:37:29;4.40;99.90
13409;DHT22;6775;49.574;11.170;2024-02-26T05:39:59;4.40;99.90
13409;DHT22;6775;49.574;11.170;2024-02-26T05:42:27;4.50;99.90
13409;DHT22;6775;49.574;11.170;2024-02-26T05:44:55;4.50;99.90
13409;DHT22;6775;49.574;11.170;2024-02-26T05:47:25;4.50;99.90
13409;DHT22;6775;49.574;11.170;2024-02-26T05:49:53;4.40;99.90
13409;DHT22;6775;49.574;11.170;2024-02-26T05:52:25;4.40;99.90
13409;DHT22;6775;49.574;11.170;2024-02-26T05:54:53;4.40;99.90
13409;DHT22;6775;49.574;11.170;2024-02-26T05:57:21;4.50;99.90
13409;DHT22;6775;49.574;11.170;2024-02-26T05:59:49;4.50;99.90
13409;DHT22;6775;49.574;11.170;2024-02-26T06:02:18;4.50;99.90
13409;DHT22;6775;49.574;11.170;2024-02-26T06:04:47;4.50;99.90
13409;DHT22;6775;49.574;11.170;2024-02-26T06:07:15;4.50;99.90
13409;DHT22;6775;49.574;11.170;2024-02-26T06:09:43;4.50;99.90
13409;DHT22;6775;49.574;11.170;2024-02-26T06:12:11;4.50;99.90
13409;DHT22;6775;49.574;11.170;2024-02-26T06:14:40;4.50;99.90
13409;DHT22;6775;49.574;11.170;2024-02-26T06:17:09;4.40;99.90
13409;DHT22;6775;49.574;11.170;2024-02-26T06:19:37;4.40;99.90
13409;DHT22;6775;49.574;11.170;2024-02-26T06:22:07;4.40;99.90
13409;DHT22;6775;49.574;11.170;2024-02-26T06:24:35;4.50;99.90
13409;DHT22;6775;49.574;11.170;2024-02-26T06:27:03;4.50;99.90
13409;DHT22;6775;49.574;11.170;2024-02-26T06:29:31;4.60;99.90
13409;DHT22;6775;49.574;11.170;2024-02-26T06:32:00;4.60;99.90
13409;DHT22;6775;49.574;11.170;2024-02-26T06:34:28;4.60;99.90
13409;DHT22;6775;49.574;11.170;2024-02-26T06:36:56;4.70;99.90
13409;DHT22;6775;49.574;11.170;2024-02-26T06:39:25;4.80;99.90
13409;DHT22;6775;49.574;11.170;2024-02-26T06:41:54;4.90;99.90
13409;DHT22;6775;49.574;11.170;2024-02-26T06:44:27;4.90;99.90
13409;DHT22;6775;49.574;11.170;2024-02-26T06:46:58;4.90;99.90
13409;DHT22;6775;49.574;11.170;2024-02-26T06:49:27;4.90;99.90
13409;DHT22;6775;49.574;11.170;2024-02-26T06:51:56;4.90;99.90
13409;DHT22;6775;49.574;11.170;2024-02-26T06:54:25;4.90;99.90
13409;DHT22;6775;49.574;11.170;2024-02-26T06:56:54;4.90;99.90
13409;DHT22;6775;49.574;11.170;2024-02-26T06:59:22;4.90;99.90
13409;DHT22;6775;49.574;11.170;2024-02-26T07:01:51;4.90;99.90
13409;DHT22;6775;49.574;11.170;2024-02-26T07:04:21;5.00;99.90
13409;DHT22;6775;49.574;11.170;2024-02-26T07:06:49;4.90;99.90
13409;DHT22;6775;49.574;11.170;2024-02-26T07:09:18;5.00;99.90
13409;DHT22;6775;49.574;11.170;2024-02-26T07:11:48;5.00;99.90
13409;DHT22;6775;49.574;11.170;2024-02-26T07:14:16;5.00;99.90
13409;DHT22;6775;49.574;11.170;2024-02-26T07:16:44;5.10;99.90
13409;DHT22;6775;49.574;11.170;2024-02-26T07:19:12;5.10;99.90
13409;DHT22;6775;49.574;11.170;2024-02-26T07:21:41;5.10;99.90
13409;DHT22;6775;49.574;11.170;2024-02-26T07:24:09;5.10;99.90
13409;DHT22;6775;49.574;11.170;2024-02-26T07:26:37;5.10;99.90
13409;DHT22;6775;49.574;11.170;2024-02-26T07:29:07;5.10;99.90
13409;DHT22;6775;49.574;11.170;2024-02-26T07:31:35;5.20;99.90
13409;DHT22;6775;49.574;11.170;2024-02-26T07:34:03;5.20;99.90
13409;DHT22;6775;49.574;11.170;2024-02-26T07:36:31;5.20;99.90
13409;DHT22;6775;49.574;11.170;2024-02-26T07:38:59;5.20;99.90
13409;DHT22;6775;49.574;11.170;2024-02-26T07:41:28;5.30;99.90
13409;DHT22;6775;49.574;11.170;2024-02-26T07:43:56;5.30;99.90
13409;DHT22;6775;49.574;11.170;2024-02-26T07:46:26;5.40;99.90
13409;DHT22;6775;49.574;11.170;2024-02-26T07:48:54;5.50;99.90
13409;DHT22;6775;49.574;11.170;2024-02-26T07:51:22;5.60;99.90
13409;DHT22;6775;49.574;11.170;2024-02-26T07:53:50;5.70;99.90
13409;DHT22;6775;49.574;11.170;2024-02-26T07:56:19;5.90;99.90
13409;DHT22;6775;49.574;11.170;2024-02-26T07:58:47;6.00;99.90
13409;DHT22;6775;49.574;11.170;2024-02-26T08:01:16;6.10;99.90
13409;DHT22;6775;49.574;11.170;2024-02-26T08:03:45;6.30;99.90
13409;DHT22;6775;49.574;11.170;2024-02-26T08:06:13;6.30;99.90
13409;DHT22;6775;49.574;11.170;2024-02-26T08:08:42;6.40;99.90
13409;DHT22;6775;49.574;11.170;2024-02-26T08:11:10;6.40;99.90
13409;DHT22;6775;49.574;11.170;2024-02-26T08:13:38;6.40;99.90
13409;DHT22;6775;49.574;11.170;2024-02-26T08:16:07;6.40;99.90
13409;DHT22;6775;49.574;11.170;2024-02-26T08:18:35;6.40;99.90
13409;DHT22;6775;49.574;11.170;2024-02-26T08:21:05;6.40;99.90
13409;DHT22;6775;49.574;11.170;2024-02-26T08:23:33;6.50;99.90
13409;DHT22;6775;49.574;11.170;2024-02-26T08:26:01;6.50;99.90
13409;DHT22;6775;49.574;11.170;2024-02-26T08:28:31;6.50;99.90
13409;DHT22;6775;49.574;11.170;2024-02-26T08:30:59;6.50;99.90
13409;DHT22;6775;49.574;11.170;2024-02-26T08:33:27;6.50;99.90
13409;DHT22;6775;49.574;11.170;2024-02-26T08:35:55;6.50;99.90
13409;DHT22;6775;49.574;11.170;2024-02-26T08:38:26;6.40;99.90
13409;DHT22;6775;49.574;11.170;2024-02-26T08:40:54;6.40;99.90
13409;DHT22;6775;49.574;11.170;2024-02-26T08:43:22;6.30;99.90
13409;DHT22;6775;49.574;11.170;2024-02-26T08:45:50;6.30;99.90
13409;DHT22;6775;49.574;11.170;2024-02-26T08:48:18;6.40;99.90
13409;DHT22;6775;49.574;11.170;2024-02-26T08:50:47;6.40;99.90
13409;DHT22;6775;49.574;11.170;2024-02-26T08:53:15;6.40;99.90
13409;DHT22;6775;49.574;11.170;2024-02-26T08:55:54;6.40;99.90
13409;DHT22;6775;49.574;11.170;2024-02-26T08:58:23;6.50;99.90
13409;DHT22;6775;49.574;11.170;2024-02-26T09:00:51;6.50;99.90
13409;DHT22;6775;49.574;11.170;2024-02-26T09:03:19;6.70;99.90
13409;DHT22;6775;49.574;11.170;2024-02-26T09:05:48;6.60;99.90
13409;DHT22;6775;49.574;11.170;2024-02-26T09:08:16;6.60;99.90
13409;DHT22;6775;49.574;11.170;2024-02-26T09:10:44;6.60;99.90
13409;DHT22;6775;49.574;11.170;2024-02-26T09:13:14;6.60;99.90
13409;DHT22;6775;49.574;11.170;2024-02-26T09:15:42;6.70;99.90
13409;DHT22;6775;49.574;11.170;2024-02-26T09:18:10;6.80;99.90
13409;DHT22;6775;49.574;11.170;2024-02-26T09:20:39;6.80;99.90
13409;DHT22;6775;49.574;11.170;2024-02-26T09:23:07;6.90;99.90
13409;DHT22;6775;49.574;11.170;2024-02-26T09:25:35;7.00;99.90
13409;DHT22;6775;49.574;11.170;2024-02-26T09:28:04;7.20;99.90
13409;DHT22;6775;49.574;11.170;2024-02-26T09:30:33;7.40;99.90
13409;DHT22;6775;49.574;11.170;2024-02-26T09:33:02;7.90;99.90
13409;DHT22;6775;49.574;11.170;2024-02-26T09:35:30;8.80;99.90
13409;DHT22;6775;49.574;11.170;2024-02-26T09:37:59;9.30;99.90
13409;DHT22;6775;49.574;11.170;2024-02-26T09:40:27;9.30;99.90
13409;DHT22;6775;49.574;11.170;2024-02-26T09:42:59;9.10;99.90
13409;DHT22;6775;49.574;11.170;2024-02-26T09:45:28;9.10;99.90
13409;DHT22;6775;49.574;11.170;2024-02-26T09:48:03;9.10;99.90
13409;DHT22;6775;49.574;11.170;2024-02-26T09:50:33;9.20;99.90
13409;DHT22;6775;49.574;11.170;2024-02-26T09:53:02;9.40;99.90
13409;DHT22;6775;49.574;11.170;2024-02-26T09:55:33;9.40;99.90
13409;DHT22;6775;49.574;11.170;2024-02-26T09:58:04;9.30;99.90
13409;DHT22;6775;49.574;11.170;2024-02-26T10:00:36;9.20;99.90
13409;DHT22;6775;49.574;11.170;2024-02-26T10:03:13;9.10;99.90
13409;DHT22;6775;49.574;11.170;2024-02-26T10:05:43;9.00;99.90
13409;DHT22;6775;49.574;11.170;2024-02-26T10:08:12;9.00;99.90
13409;DHT22;6775;49.574;11.170;2024-02-26T10:10:45;9.20;99.90
13409;DHT22;6775;49.574;11.170;2024-02-26T10:13:13;9.40;99.90
13409;DHT22;6775;49.574;11.170;2024-02-26T10:15:41;9.50;99.90
13409;DHT22;6775;49.574;11.170;2024-02-26T10:18:11;9.40;99.90
13409;DHT22;6775;49.574;11.170;2024-02-26T10:20:39;9.40;99.90
13409;DHT22;6775;49.574;11.170;2024-02-26T10:23:07;9.30;99.90
13409;DHT22;6775;49.574;11.170;2024-02-26T10:25:35;9.20;99.90
13409;DHT22;6775;49.574;11.170;2024-02-26T10:28:04;9.20;99.90
13409;DHT22;6775;49.574;11.170;2024-02-26T10:30:36;9.40;99.90
13409;DHT22;6775;49.574;11.170;2024-02-26T10:33:07;9.60;99.90
13409;DHT22;6775;49.574;11.170;2024-02-26T10:35:37;9.90;99.90
13409;DHT22;6775;49.574;11.170;2024-02-26T10:38:07;10.20;99.90
13409;DHT22;6775;49.574;11.170;2024-02-26T10:40:35;10.40;99.90
13409;DHT22;6775;49.574;11.170;2024-02-26T10:43:04;10.50;99.90
13409;DHT22;6775;49.574;11.170;2024-02-26T10:45:32;10.40;99.90
13409;DHT22;6775;49.574;11.170;2024-02-26T10:48:04;10.40;99.90
13409;DHT22;6775;49.574;11.170;2024-02-26T10:50:38;10.30;99.90
13409;DHT22;6775;49.574;11.170;2024-02-26T10:53:16;10.40;99.90
13409;DHT22;6775;49.574;11.170;2024-02-26T10:55:49;10.60;99.90
13409;DHT22;6775;49.574;11.170;2024-02-26T10:58:22;11.00;99.90
13409;DHT22;6775;49.574;11.170;2024-02-26T11:00:52;11.20;99.90
13409;DHT22;6775;49.574;11.170;2024-02-26T11:03:22;11.30;99.90
13409;DHT22;6775;49.574;11.170;2024-02-26T11:05:54;11.50;99.90
13409;DHT22;6775;49.574;11.170;2024-02-26T11:08:24;11.70;99.90
13409;DHT22;6775;49.574;11.170;2024-02-26T11:10:55;11.80;99.90
13409;DHT22;6775;49.574;11.170;2024-02-26T11:13:28;11.70;99.90
13409;DHT22;6775;49.574;11.170;2024-02-26T11:16:02;11.90;99.90
13409;DHT22;6775;49.574;11.170;2024-02-26T11:18:31;12.20;99.90
13409;DHT22;6775;49.574;11.170;2024-02-26T11:21:04;12.60;99.90
13409;DHT22;6775;49.574;11.170;2024-02-26T11:23:35;13.30;98.90
13409;DHT22;6775;49.574;11.170;2024-02-26T11:26:05;13.90;97.70
13409;DHT22;6775;49.574;11.170;2024-02-26T11:28:35;15.10;95.50
13409;DHT22;6775;49.574;11.170;2024-02-26T11:31:04;16.50;92.10
13409;DHT22;6775;49.574;11.170;2024-02-26T11:33:34;18.10;85.10
13409;DHT22;6775;49.574;11.170;2024-02-26T11:36:09;19.80;72.30
13409;DHT22;6775;49.574;11.170;2024-02-26T11:38:39;20.00;64.40
13409;DHT22;6775;49.574;11.170;2024-02-26T11:41:08;19.20;62.60
13409;DHT22;6775;49.574;11.170;2024-02-26T11:43:52;18.50;63.60
13409;DHT22;6775;49.574;11.170;2024-02-26T11:46:25;17.90;65.00
13409;DHT22;6775;49.574;11.170;2024-02-26T11:48:56;17.80;67.10
13409;DHT22;6775;49.574;11.170;2024-02-26T11:51:31;17.90;64.10
13409;DHT22;6775;49.574;11.170;2024-02-26T11:54:00;18.10;66.10
13409;DHT22;6775;49.574;11.170;2024-02-26T11:56:29;18.50;63.20
13409;DHT22;6775;49.574;11.170;2024-02-26T11:59:00;18.80;63.00
13409;DHT22;6775;49.574;11.170;2024-02-26T12:01:45;19.30;63.80
13409;DHT22;6775;49.574;11.170;2024-02-26T12:04:21;20.50;58.70
13409;DHT22;6775;49.574;11.170;2024-02-26T12:06:55;21.00;56.20
13409;DHT22;6775;49.574;11.170;2024-02-26T12:09:34;20.10;57.10
13409;DHT22;6775;49.574;11.170;2024-02-26T12:12:06;18.70;57.80
13409;DHT22;6775;49.574;11.170;2024-02-26T12:14:38;17.50;59.30
13409;DHT22;6775;49.574;11.170;2024-02-26T12:17:07;16.90;62.00
13409;DHT22;6775;49.574;11.170;2024-02-26T12:19:47;17.40;65.40
13409;DHT22;6775;49.574;11.170;2024-02-26T12:22:16;18.60;64.30
13409;DHT22;6775;49.574;11.170;2024-02-26T12:24:45;20.40;60.10
13409;DHT22;6775;49.574;11.170;2024-02-26T12:27:13;21.60;55.60
13409;DHT22;6775;49.574;11.170;2024-02-26T12:29:42;22.90;52.60
13409;DHT22;6775;49.574;11.170;2024-02-26T12:32:11;23.90;50.60
13409;DHT22;6775;49.574;11.170;2024-02-26T12:34:40;24.50;46.40
13409;DHT22;6775;49.574;11.170;2024-02-26T12:37:08;24.80;46.90
13409;DHT22;6775;49.574;11.170;2024-02-26T12:39:38;25.10;44.90
13409;DHT22;6775;49.574;11.170;2024-02-26T12:42:07;25.40;43.80
13409;DHT22;6775;49.574;11.170;2024-02-26T12:44:36;25.90;41.80
13409;DHT22;6775;49.574;11.170;2024-02-26T12:47:05;24.50;41.20
13409;DHT22;6775;49.574;11.170;2024-02-26T12:49:34;22.50;43.20
13409;DHT22;6775;49.574;11.170;2024-02-26T12:52:02;20.70;47.80
13409;DHT22;6775;49.574;11.170;2024-02-26T12:54:32;19.40;49.80
13409;DHT22;6775;49.574;11.170;2024-02-26T12:57:04;18.50;53.50
13409;DHT22;6775;49.574;11.170;2024-02-26T12:59:34;18.10;53.90
13409;DHT22;6775;49.574;11.170;2024-02-26T13:02:04;18.40;50.20
13409;DHT22;6775;49.574;11.170;2024-02-26T13:04:34;19.30;52.70
13409;DHT22;6775;49.574;11.170;2024-02-26T13:07:04;20.80;51.00
13409;DHT22;6775;49.574;11.170;2024-02-26T13:09:33;22.60;47.80
13409;DHT22;6775;49.574;11.170;2024-02-26T13:12:06;22.50;45.60
13409;DHT22;6775;49.574;11.170;2024-02-26T13:14:35;20.90;47.70
13409;DHT22;6775;49.574;11.170;2024-02-26T13:17:04;19.40;49.60
13409;DHT22;6775;49.574;11.170;2024-02-26T13:19:32;18.20;51.90
13409;DHT22;6775;49.574;11.170;2024-02-26T13:22:04;17.60;52.30
13409;DHT22;6775;49.574;11.170;2024-02-26T13:24:33;16.90;55.20
13409;DHT22;6775;49.574;11.170;2024-02-26T13:27:01;16.60;56.40
13409;DHT22;6775;49.574;11.170;2024-02-26T13:29:34;17.50;56.80
13409;DHT22;6775;49.574;11.170;2024-02-26T13:32:03;18.90;53.70
13409;DHT22;6775;49.574;11.170;2024-02-26T13:34:32;20.40;51.70
13409;DHT22;6775;49.574;11.170;2024-02-26T13:37:02;21.40;49.70
13409;DHT22;6775;49.574;11.170;2024-02-26T13:39:32;21.70;48.40
13409;DHT22;6775;49.574;11.170;2024-02-26T13:42:03;21.00;47.80
13409;DHT22;6775;49.574;11.170;2024-02-26T13:44:31;20.60;48.30
13409;DHT22;6775;49.574;11.170;2024-02-26T13:47:04;20.10;47.80
13409;DHT22;6775;49.574;11.170;2024-02-26T13:49:33;19.90;48.30
13409;DHT22;6775;49.574;11.170;2024-02-26T13:52:01;20.60;49.30
13409;DHT22;6775;49.574;11.170;2024-02-26T13:54:29;21.60;48.90
13409;DHT22;6775;49.574;11.170;2024-02-26T13:56:57;21.20;46.60
13409;DHT22;6775;49.574;11.170;2024-02-26T13:59:26;19.70;48.70
13409;DHT22;6775;49.574;11.170;2024-02-26T14:01:55;18.20;51.40
13409;DHT22;6775;49.574;11.170;2024-02-26T14:04:25;17.10;53.30
13409;DHT22;6775;49.574;11.170;2024-02-26T14:06:53;16.10;57.10
13409;DHT22;6775;49.574;11.170;2024-02-26T14:09:22;15.50;57.10
13409;DHT22;6775;49.574;11.170;2024-02-26T14:12:01;14.80;57.80
13409;DHT22;6775;49.574;11.170;2024-02-26T14:14:30;14.30;60.70
13409;DHT22;6775;49.574;11.170;2024-02-26T14:17:02;13.90;62.60
13409;DHT22;6775;49.574;11.170;2024-02-26T14:19:31;13.50;63.60
13409;DHT22;6775;49.574;11.170;2024-02-26T14:22:00;13.20;64.60
13409;DHT22;6775;49.574;11.170;2024-02-26T14:24:28;12.90;64.70
13409;DHT22;6775;49.574;11.170;2024-02-26T14:26:56;12.70;67.00
13409;DHT22;6775;49.574;11.170;2024-02-26T14:29:24;12.50;66.30
13409;DHT22;6775;49.574;11.170;2024-02-26T14:31:52;12.40;68.00
13409;DHT22;6775;49.574;11.170;2024-02-26T14:34:23;12.30;69.50
13409;DHT22;6775;49.574;11.170;2024-02-26T14:36:53;12.10;71.40
13409;DHT22;6775;49.574;11.170;2024-02-26T14:39:21;12.10;72.60
13409;DHT22;6775;49.574;11.170;2024-02-26T14:41:50;12.10;72.10
13409;DHT22;6775;49.574;11.170;2024-02-26T14:44:21;12.00;71.80
13409;DHT22;6775;49.574;11.170;2024-02-26T14:46:51;12.00;72.70
13409;DHT22;6775;49.574;11.170;2024-02-26T14:49:19;12.00;73.20
13409;DHT22;6775;49.574;11.170;2024-02-26T14:51:47;12.00;72.80
13409;DHT22;6775;49.574;11.170;2024-02-26T14:54:16;11.90;73.80
13409;DHT22;6775;49.574;11.170;2024-02-26T14:56:45;11.80;75.20
13409;DHT22;6775;49.574;11.170;2024-02-26T14:59:14;11.80;74.70
13409;DHT22;6775;49.574;11.170;2024-02-26T15:01:43;11.70;76.20
13409;DHT22;6775;49.574;11.170;2024-02-26T15:04:13;11.70;77.80
13409;DHT22;6775;49.574;11.170;2024-02-26T15:06:42;11.70;79.60
13409;DHT22;6775;49.574;11.170;2024-02-26T15:09:10;11.60;82.30
13409;DHT22;6775;49.574;11.170;2024-02-26T15:11:40;11.60;83.60
13409;DHT22;6775;49.574;11.170;2024-02-26T15:14:10;11.60;87.80
13409;DHT22;6775;49.574;11.170;2024-02-26T15:16:38;11.50;88.40
13409;DHT22;6775;49.574;11.170;2024-02-26T15:19:07;11.40;90.60
13409;DHT22;6775;49.574;11.170;2024-02-26T15:21:45;11.40;92.60
13409;DHT22;6775;49.574;11.170;2024-02-26T15:24:14;11.40;93.40
13409;DHT22;6775;49.574;11.170;2024-02-26T15:26:45;11.40;93.90
13409;DHT22;6775;49.574;11.170;2024-02-26T15:29:13;11.30;94.80
13409;DHT22;6775;49.574;11.170;2024-02-26T15:31:42;11.30;94.70
13409;DHT22;6775;49.574;11.170;2024-02-26T15:34:10;11.30;95.50
13409;DHT22;6775;49.574;11.170;2024-02-26T15:36:39;11.20;95.70
13409;DHT22;6775;49.574;11.170;2024-02-26T15:39:08;11.10;95.60
13409;DHT22;6775;49.574;11.170;2024-02-26T15:41:37;11.10;95.90
13409;DHT22;6775;49.574;11.170;2024-02-26T15:44:06;11.00;96.50
13409;DHT22;6775;49.574;11.170;2024-02-26T15:46:39;11.00;96.00
13409;DHT22;6775;49.574;11.170;2024-02-26T15:49:08;10.80;96.60
13409;DHT22;6775;49.574;11.170;2024-02-26T15:51:40;10.80;97.30